Araucaria, Brazil
Current Conditions -  °F | °C
As of 3:00 AM on Wednesday 22 Oct 2014 (Local Time) from SBCT Reporting Station
Broken Clouds Broken Clouds  
Wind Chill: 12°   Ceiling: 2100
Heat Index: 12°   Visibility: 6mi
Dew Point: 11°   Wind: 7mph
Humidity: 94%   Direction: 110°ESE
Pressure: 30.21"   Gusts: NA
Location:  25.58°S, 49.4°W
Report Text: SBCT 220500Z 11006KT 9999 SCT010 BKN021 12/11 Q1023
Loading
Personal Weather Stations






























Interactive Weather Map
Tropical Storm Tracking
New forecast layout! Learn more

10-Day Weather Forecast

Advertisements
Track Severe Weather on mobile